sensor_id;sensor_type;location;lat;lon;timestamp;temperature;humidity
41533;DHT22;27262;-35.248;149.138;2023-08-06T00:02:27;19.00;65.30
41533;DHT22;27262;-35.248;149.138;2023-08-06T00:04:57;19.00;65.30
41533;DHT22;27262;-35.248;149.138;2023-08-06T00:07:27;19.00;65.30
41533;DHT22;27262;-35.248;149.138;2023-08-06T00:09:58;19.00;65.30
41533;DHT22;27262;-35.248;149.138;2023-08-06T00:12:29;19.00;65.30
41533;DHT22;27262;-35.248;149.138;2023-08-06T00:14:59;19.10;65.30
41533;DHT22;27262;-35.248;149.138;2023-08-06T00:17:30;19.00;65.20
41533;DHT22;27262;-35.248;149.138;2023-08-06T00:20:04;19.10;65.20
41533;DHT22;27262;-35.248;149.138;2023-08-06T00:22:37;19.10;65.20
41533;DHT22;27262;-35.248;149.138;2023-08-06T00:25:08;19.10;65.20
41533;DHT22;27262;-35.248;149.138;2023-08-06T00:27:38;19.10;65.20
41533;DHT22;27262;-35.248;149.138;2023-08-06T00:30:09;19.20;65.30
41533;DHT22;27262;-35.248;149.138;2023-08-06T00:32:40;19.20;65.30
41533;DHT22;27262;-35.248;149.138;2023-08-06T00:35:11;19.20;65.40
41533;DHT22;27262;-35.248;149.138;2023-08-06T00:37:42;19.20;65.50
41533;DHT22;27262;-35.248;149.138;2023-08-06T00:40:13;19.20;65.60
41533;DHT22;27262;-35.248;149.138;2023-08-06T00:42:43;19.30;65.60
41533;DHT22;27262;-35.248;149.138;2023-08-06T00:45:14;19.30;65.60
41533;DHT22;27262;-35.248;149.138;2023-08-06T00:47:45;19.30;65.50
41533;DHT22;27262;-35.248;149.138;2023-08-06T00:50:16;19.30;65.40
41533;DHT22;27262;-35.248;149.138;2023-08-06T00:52:48;19.40;65.30
41533;DHT22;27262;-35.248;149.138;2023-08-06T00:55:19;19.40;65.40
41533;DHT22;27262;-35.248;149.138;2023-08-06T00:57:49;19.40;65.40
41533;DHT22;27262;-35.248;149.138;2023-08-06T01:00:21;19.40;65.50
41533;DHT22;27262;-35.248;149.138;2023-08-06T01:02:53;19.40;65.40
41533;DHT22;27262;-35.248;149.138;2023-08-06T01:05:23;19.50;65.40
41533;DHT22;27262;-35.248;149.138;2023-08-06T01:08:25;19.50;65.20
41533;DHT22;27262;-35.248;149.138;2023-08-06T01:14:06;19.60;63.90
41533;DHT22;27262;-35.248;149.138;2023-08-06T01:16:38;19.60;63.80
41533;DHT22;27262;-35.248;149.138;2023-08-06T01:19:19;19.60;63.80
41533;DHT22;27262;-35.248;149.138;2023-08-06T01:21:50;19.70;63.50
41533;DHT22;27262;-35.248;149.138;2023-08-06T01:24:21;19.70;63.60
41533;DHT22;27262;-35.248;149.138;2023-08-06T01:27:25;19.70;63.50
41533;DHT22;27262;-35.248;149.138;2023-08-06T01:30:13;19.80;63.50
41533;DHT22;27262;-35.248;149.138;2023-08-06T01:32:49;19.80;63.90
41533;DHT22;27262;-35.248;149.138;2023-08-06T01:35:20;19.80;64.00
41533;DHT22;27262;-35.248;149.138;2023-08-06T01:37:51;19.80;64.10
41533;DHT22;27262;-35.248;149.138;2023-08-06T01:40:22;19.90;64.20
41533;DHT22;27262;-35.248;149.138;2023-08-06T01:42:52;19.90;64.00
41533;DHT22;27262;-35.248;149.138;2023-08-06T01:45:23;19.90;64.00
41533;DHT22;27262;-35.248;149.138;2023-08-06T01:47:53;20.00;64.00
41533;DHT22;27262;-35.248;149.138;2023-08-06T01:50:23;20.00;64.20
41533;DHT22;27262;-35.248;149.138;2023-08-06T01:52:54;20.00;64.10
41533;DHT22;27262;-35.248;149.138;2023-08-06T01:55:24;20.00;64.10
41533;DHT22;27262;-35.248;149.138;2023-08-06T01:57:54;20.10;64.20
41533;DHT22;27262;-35.248;149.138;2023-08-06T02:00:25;20.00;64.00
41533;DHT22;27262;-35.248;149.138;2023-08-06T02:02:57;20.10;64.00
41533;DHT22;27262;-35.248;149.138;2023-08-06T02:05:27;20.10;63.90
41533;DHT22;27262;-35.248;149.138;2023-08-06T02:07:58;20.10;63.80
41533;DHT22;27262;-35.248;149.138;2023-08-06T02:10:28;20.10;63.70
41533;DHT22;27262;-35.248;149.138;2023-08-06T02:12:59;20.20;63.60
41533;DHT22;27262;-35.248;149.138;2023-08-06T02:15:29;20.20;63.60
41533;DHT22;27262;-35.248;149.138;2023-08-06T02:18:00;20.20;63.50
41533;DHT22;27262;-35.248;149.138;2023-08-06T02:20:31;20.20;63.50
41533;DHT22;27262;-35.248;149.138;2023-08-06T02:23:02;20.20;63.50
41533;DHT22;27262;-35.248;149.138;2023-08-06T02:25:32;20.20;63.50
41533;DHT22;27262;-35.248;149.138;2023-08-06T02:28:03;20.30;63.50
41533;DHT22;27262;-35.248;149.138;2023-08-06T02:30:33;20.20;63.40
41533;DHT22;27262;-35.248;149.138;2023-08-06T02:33:03;20.30;63.50
41533;DHT22;27262;-35.248;149.138;2023-08-06T02:35:34;20.30;63.40
41533;DHT22;27262;-35.248;149.138;2023-08-06T02:38:04;20.30;63.40
41533;DHT22;27262;-35.248;149.138;2023-08-06T02:40:35;20.30;63.40
41533;DHT22;27262;-35.248;149.138;2023-08-06T02:43:05;20.40;63.40
41533;DHT22;27262;-35.248;149.138;2023-08-06T02:45:35;20.40;63.40
41533;DHT22;27262;-35.248;149.138;2023-08-06T02:48:06;20.40;63.30
41533;DHT22;27262;-35.248;149.138;2023-08-06T02:50:40;20.40;63.20
41533;DHT22;27262;-35.248;149.138;2023-08-06T02:53:10;20.50;63.20
41533;DHT22;27262;-35.248;149.138;2023-08-06T02:55:46;20.50;63.20
41533;DHT22;27262;-35.248;149.138;2023-08-06T02:58:20;20.50;63.10
41533;DHT22;27262;-35.248;149.138;2023-08-06T03:01:11;20.50;63.10
41533;DHT22;27262;-35.248;149.138;2023-08-06T03:03:41;20.50;62.80
41533;DHT22;27262;-35.248;149.138;2023-08-06T03:06:12;20.50;63.10
41533;DHT22;27262;-35.248;149.138;2023-08-06T03:08:42;20.50;63.00
41533;DHT22;27262;-35.248;149.138;2023-08-06T03:11:13;20.60;63.10
41533;DHT22;27262;-35.248;149.138;2023-08-06T03:13:43;20.60;63.10
41533;DHT22;27262;-35.248;149.138;2023-08-06T03:16:14;20.60;63.00
41533;DHT22;27262;-35.248;149.138;2023-08-06T03:18:44;20.60;62.90
41533;DHT22;27262;-35.248;149.138;2023-08-06T03:21:15;20.60;62.90
41533;DHT22;27262;-35.248;149.138;2023-08-06T03:23:47;20.60;62.90
41533;DHT22;27262;-35.248;149.138;2023-08-06T03:26:18;20.60;62.90
41533;DHT22;27262;-35.248;149.138;2023-08-06T03:28:48;20.60;63.00
41533;DHT22;27262;-35.248;149.138;2023-08-06T03:31:18;20.60;63.00
41533;DHT22;27262;-35.248;149.138;2023-08-06T03:33:49;20.60;63.00
41533;DHT22;27262;-35.248;149.138;2023-08-06T03:36:19;20.60;63.10
41533;DHT22;27262;-35.248;149.138;2023-08-06T03:38:50;20.70;63.20
41533;DHT22;27262;-35.248;149.138;2023-08-06T03:41:20;20.70;63.10
41533;DHT22;27262;-35.248;149.138;2023-08-06T03:43:51;20.70;63.10
41533;DHT22;27262;-35.248;149.138;2023-08-06T03:46:21;20.70;63.10
41533;DHT22;27262;-35.248;149.138;2023-08-06T03:48:51;20.70;63.10
41533;DHT22;27262;-35.248;149.138;2023-08-06T03:51:22;20.60;63.10
41533;DHT22;27262;-35.248;149.138;2023-08-06T03:53:52;20.60;63.10
41533;DHT22;27262;-35.248;149.138;2023-08-06T03:56:22;20.60;63.10
41533;DHT22;27262;-35.248;149.138;2023-08-06T03:58:53;20.60;63.10
41533;DHT22;27262;-35.248;149.138;2023-08-06T04:01:23;20.60;63.00
41533;DHT22;27262;-35.248;149.138;2023-08-06T04:03:54;20.60;63.00
41533;DHT22;27262;-35.248;149.138;2023-08-06T04:06:24;20.60;63.00
41533;DHT22;27262;-35.248;149.138;2023-08-06T04:08:54;20.60;63.00
41533;DHT22;27262;-35.248;149.138;2023-08-06T04:11:25;20.60;63.00
41533;DHT22;27262;-35.248;149.138;2023-08-06T04:13:55;20.60;63.00
41533;DHT22;27262;-35.248;149.138;2023-08-06T04:16:25;20.50;63.00
41533;DHT22;27262;-35.248;149.138;2023-08-06T04:18:56;20.50;63.00
41533;DHT22;27262;-35.248;149.138;2023-08-06T04:21:27;20.50;62.90
41533;DHT22;27262;-35.248;149.138;2023-08-06T04:23:58;20.50;63.00
41533;DHT22;27262;-35.248;149.138;2023-08-06T04:26:28;20.50;63.00
41533;DHT22;27262;-35.248;149.138;2023-08-06T04:28:58;20.50;63.00
41533;DHT22;27262;-35.248;149.138;2023-08-06T04:31:29;20.50;63.10
41533;DHT22;27262;-35.248;149.138;2023-08-06T04:34:00;20.50;63.00
41533;DHT22;27262;-35.248;149.138;2023-08-06T04:36:36;20.50;63.00
41533;DHT22;27262;-35.248;149.138;2023-08-06T04:39:08;20.50;62.90
41533;DHT22;27262;-35.248;149.138;2023-08-06T04:41:39;20.50;63.00
41533;DHT22;27262;-35.248;149.138;2023-08-06T04:44:09;20.50;62.90
41533;DHT22;27262;-35.248;149.138;2023-08-06T04:46:40;20.50;62.80
41533;DHT22;27262;-35.248;149.138;2023-08-06T04:49:10;20.50;62.70
41533;DHT22;27262;-35.248;149.138;2023-08-06T04:51:41;20.50;62.60
41533;DHT22;27262;-35.248;149.138;2023-08-06T04:54:11;20.50;62.70
41533;DHT22;27262;-35.248;149.138;2023-08-06T04:56:42;20.50;62.70
41533;DHT22;27262;-35.248;149.138;2023-08-06T04:59:13;20.50;62.70
41533;DHT22;27262;-35.248;149.138;2023-08-06T05:01:44;20.50;62.70
41533;DHT22;27262;-35.248;149.138;2023-08-06T05:04:14;20.50;62.70
41533;DHT22;27262;-35.248;149.138;2023-08-06T05:06:45;20.50;62.70
41533;DHT22;27262;-35.248;149.138;2023-08-06T05:09:15;20.50;62.70
41533;DHT22;27262;-35.248;149.138;2023-08-06T05:11:47;20.50;62.80
41533;DHT22;27262;-35.248;149.138;2023-08-06T05:14:18;20.50;62.70
41533;DHT22;27262;-35.248;149.138;2023-08-06T05:16:48;20.50;62.70
41533;DHT22;27262;-35.248;149.138;2023-08-06T05:19:19;20.50;62.80
41533;DHT22;27262;-35.248;149.138;2023-08-06T05:21:50;20.50;62.80
41533;DHT22;27262;-35.248;149.138;2023-08-06T05:24:21;20.50;62.80
41533;DHT22;27262;-35.248;149.138;2023-08-06T05:26:51;20.50;62.80
41533;DHT22;27262;-35.248;149.138;2023-08-06T05:29:21;20.60;62.90
41533;DHT22;27262;-35.248;149.138;2023-08-06T05:31:52;20.50;62.80
41533;DHT22;27262;-35.248;149.138;2023-08-06T05:34:22;20.60;62.90
41533;DHT22;27262;-35.248;149.138;2023-08-06T05:36:53;20.50;62.80
41533;DHT22;27262;-35.248;149.138;2023-08-06T05:39:23;20.60;63.00
41533;DHT22;27262;-35.248;149.138;2023-08-06T05:41:54;20.60;63.00
41533;DHT22;27262;-35.248;149.138;2023-08-06T05:44:24;20.60;63.00
41533;DHT22;27262;-35.248;149.138;2023-08-06T05:46:55;20.70;63.10
41533;DHT22;27262;-35.248;149.138;2023-08-06T05:49:25;20.70;63.00
41533;DHT22;27262;-35.248;149.138;2023-08-06T05:51:56;20.70;63.00
41533;DHT22;27262;-35.248;149.138;2023-08-06T05:54:26;20.70;63.10
41533;DHT22;27262;-35.248;149.138;2023-08-06T05:56:57;20.70;63.10
41533;DHT22;27262;-35.248;149.138;2023-08-06T05:59:27;20.70;63.10
41533;DHT22;27262;-35.248;149.138;2023-08-06T06:01:58;20.70;63.10
41533;DHT22;27262;-35.248;149.138;2023-08-06T06:04:29;20.80;63.40
41533;DHT22;27262;-35.248;149.138;2023-08-06T06:06:59;20.80;63.40
41533;DHT22;27262;-35.248;149.138;2023-08-06T06:09:30;20.80;63.40
41533;DHT22;27262;-35.248;149.138;2023-08-06T06:12:00;20.80;63.40
41533;DHT22;27262;-35.248;149.138;2023-08-06T06:14:30;20.80;63.20
41533;DHT22;27262;-35.248;149.138;2023-08-06T06:17:01;20.90;63.20
41533;DHT22;27262;-35.248;149.138;2023-08-06T06:19:32;20.90;63.20
41533;DHT22;27262;-35.248;149.138;2023-08-06T06:22:02;20.90;63.20
41533;DHT22;27262;-35.248;149.138;2023-08-06T06:24:32;20.90;63.20
41533;DHT22;27262;-35.248;149.138;2023-08-06T06:27:03;20.90;63.10
41533;DHT22;27262;-35.248;149.138;2023-08-06T06:29:34;20.90;63.10
41533;DHT22;27262;-35.248;149.138;2023-08-06T06:32:04;20.90;63.10
41533;DHT22;27262;-35.248;149.138;2023-08-06T06:34:35;20.90;63.00
41533;DHT22;27262;-35.248;149.138;2023-08-06T06:37:05;21.00;63.10
41533;DHT22;27262;-35.248;149.138;2023-08-06T06:39:36;21.00;63.10
41533;DHT22;27262;-35.248;149.138;2023-08-06T06:42:06;21.00;63.00
41533;DHT22;27262;-35.248;149.138;2023-08-06T06:44:36;21.00;63.00
41533;DHT22;27262;-35.248;149.138;2023-08-06T06:47:07;21.00;63.00
41533;DHT22;27262;-35.248;149.138;2023-08-06T06:49:37;21.00;63.00
41533;DHT22;27262;-35.248;149.138;2023-08-06T06:52:08;21.00;62.90
41533;DHT22;27262;-35.248;149.138;2023-08-06T06:54:38;21.00;63.00
41533;DHT22;27262;-35.248;149.138;2023-08-06T06:57:08;21.00;62.80
41533;DHT22;27262;-35.248;149.138;2023-08-06T06:59:39;21.00;62.80
41533;DHT22;27262;-35.248;149.138;2023-08-06T07:02:09;21.00;62.80
41533;DHT22;27262;-35.248;149.138;2023-08-06T07:04:40;21.00;62.80
41533;DHT22;27262;-35.248;149.138;2023-08-06T07:07:10;21.00;62.80
41533;DHT22;27262;-35.248;149.138;2023-08-06T07:09:41;21.00;62.70
41533;DHT22;27262;-35.248;149.138;2023-08-06T07:12:11;21.00;62.70
41533;DHT22;27262;-35.248;149.138;2023-08-06T07:14:42;21.00;62.70
41533;DHT22;27262;-35.248;149.138;2023-08-06T07:17:12;21.00;62.70
41533;DHT22;27262;-35.248;149.138;2023-08-06T07:19:42;21.00;62.60
41533;DHT22;27262;-35.248;149.138;2023-08-06T07:22:13;21.00;62.50
41533;DHT22;27262;-35.248;149.138;2023-08-06T07:24:43;21.00;62.40
41533;DHT22;27262;-35.248;149.138;2023-08-06T07:27:14;21.00;62.30
41533;DHT22;27262;-35.248;149.138;2023-08-06T07:29:45;21.00;62.30
41533;DHT22;27262;-35.248;149.138;2023-08-06T07:32:15;21.00;62.30
41533;DHT22;27262;-35.248;149.138;2023-08-06T07:34:45;21.00;62.40
41533;DHT22;27262;-35.248;149.138;2023-08-06T07:37:16;21.00;62.40
41533;DHT22;27262;-35.248;149.138;2023-08-06T07:39:46;21.00;62.50
41533;DHT22;27262;-35.248;149.138;2023-08-06T07:42:16;21.00;62.50
41533;DHT22;27262;-35.248;149.138;2023-08-06T07:44:57;21.10;62.60
41533;DHT22;27262;-35.248;149.138;2023-08-06T07:47:28;21.10;62.70
41533;DHT22;27262;-35.248;149.138;2023-08-06T07:49:58;21.10;62.70
41533;DHT22;27262;-35.248;149.138;2023-08-06T07:52:29;21.10;62.80
41533;DHT22;27262;-35.248;149.138;2023-08-06T07:54:59;21.10;62.80
41533;DHT22;27262;-35.248;149.138;2023-08-06T07:57:34;21.10;62.80
41533;DHT22;27262;-35.248;149.138;2023-08-06T08:00:04;21.10;63.00
41533;DHT22;27262;-35.248;149.138;2023-08-06T08:02:35;21.10;63.00
41533;DHT22;27262;-35.248;149.138;2023-08-06T08:05:05;21.10;63.00
41533;DHT22;27262;-35.248;149.138;2023-08-06T08:07:37;21.10;63.10
41533;DHT22;27262;-35.248;149.138;2023-08-06T08:10:08;21.10;63.00
41533;DHT22;27262;-35.248;149.138;2023-08-06T08:12:39;21.20;63.10
41533;DHT22;27262;-35.248;149.138;2023-08-06T08:15:10;21.20;63.10
41533;DHT22;27262;-35.248;149.138;2023-08-06T08:17:40;21.20;63.10
41533;DHT22;27262;-35.248;149.138;2023-08-06T08:20:11;21.20;63.10
41533;DHT22;27262;-35.248;149.138;2023-08-06T08:22:41;21.20;63.20
41533;DHT22;27262;-35.248;149.138;2023-08-06T08:25:12;21.20;63.20
41533;DHT22;27262;-35.248;149.138;2023-08-06T08:27:43;21.20;63.20
41533;DHT22;27262;-35.248;149.138;2023-08-06T08:30:13;21.20;63.30
41533;DHT22;27262;-35.248;149.138;2023-08-06T08:32:43;21.20;63.40
41533;DHT22;27262;-35.248;149.138;2023-08-06T08:35:13;21.20;63.40
41533;DHT22;27262;-35.248;149.138;2023-08-06T08:37:45;21.20;63.40
41533;DHT22;27262;-35.248;149.138;2023-08-06T08:40:16;21.20;63.40
41533;DHT22;27262;-35.248;149.138;2023-08-06T08:42:47;21.20;63.40
41533;DHT22;27262;-35.248;149.138;2023-08-06T08:45:20;21.20;63.40
41533;DHT22;27262;-35.248;149.138;2023-08-06T08:47:51;21.20;63.40
41533;DHT22;27262;-35.248;149.138;2023-08-06T08:50:22;21.20;63.40
41533;DHT22;27262;-35.248;149.138;2023-08-06T08:52:52;21.20;63.30
41533;DHT22;27262;-35.248;149.138;2023-08-06T08:55:23;21.20;63.00
41533;DHT22;27262;-35.248;149.138;2023-08-06T08:57:53;21.10;62.80
41533;DHT22;27262;-35.248;149.138;2023-08-06T09:00:24;21.10;62.70
41533;DHT22;27262;-35.248;149.138;2023-08-06T09:02:55;21.10;62.60
41533;DHT22;27262;-35.248;149.138;2023-08-06T09:05:29;21.10;62.50
41533;DHT22;27262;-35.248;149.138;2023-08-06T09:08:04;21.10;62.60
41533;DHT22;27262;-35.248;149.138;2023-08-06T09:10:35;21.10;62.70
41533;DHT22;27262;-35.248;149.138;2023-08-06T09:13:06;21.00;62.40
41533;DHT22;27262;-35.248;149.138;2023-08-06T09:15:38;21.00;62.30
41533;DHT22;27262;-35.248;149.138;2023-08-06T09:18:12;20.90;62.50
41533;DHT22;27262;-35.248;149.138;2023-08-06T09:20:44;21.00;62.30
41533;DHT22;27262;-35.248;149.138;2023-08-06T09:23:14;20.90;62.50
41533;DHT22;27262;-35.248;149.138;2023-08-06T09:25:45;20.90;62.30
41533;DHT22;27262;-35.248;149.138;2023-08-06T09:28:15;20.90;62.40
41533;DHT22;27262;-35.248;149.138;2023-08-06T09:30:48;20.90;62.30
41533;DHT22;27262;-35.248;149.138;2023-08-06T09:33:19;20.90;62.20
41533;DHT22;27262;-35.248;149.138;2023-08-06T09:35:49;20.80;62.20
41533;DHT22;27262;-35.248;149.138;2023-08-06T09:38:20;20.80;62.20
41533;DHT22;27262;-35.248;149.138;2023-08-06T09:40:52;20.80;62.20
41533;DHT22;27262;-35.248;149.138;2023-08-06T09:43:23;20.80;62.20
41533;DHT22;27262;-35.248;149.138;2023-08-06T09:45:55;20.80;62.20
41533;DHT22;27262;-35.248;149.138;2023-08-06T09:48:26;20.80;62.20
41533;DHT22;27262;-35.248;149.138;2023-08-06T09:50:57;20.80;62.20
41533;DHT22;27262;-35.248;149.138;2023-08-06T09:53:27;20.70;62.10
41533;DHT22;27262;-35.248;149.138;2023-08-06T09:55:58;20.70;62.10
41533;DHT22;27262;-35.248;149.138;2023-08-06T09:58:32;20.70;62.10
41533;DHT22;27262;-35.248;149.138;2023-08-06T10:01:03;20.70;62.10
41533;DHT22;27262;-35.248;149.138;2023-08-06T10:03:34;20.70;62.20
41533;DHT22;27262;-35.248;149.138;2023-08-06T10:06:05;20.70;62.20
41533;DHT22;27262;-35.248;149.138;2023-08-06T10:08:38;20.70;62.10
41533;DHT22;27262;-35.248;149.138;2023-08-06T10:11:10;20.60;62.10
41533;DHT22;27262;-35.248;149.138;2023-08-06T10:13:42;20.70;62.10
41533;DHT22;27262;-35.248;149.138;2023-08-06T10:16:13;20.60;62.10
41533;DHT22;27262;-35.248;149.138;2023-08-06T10:18:44;20.60;62.10
41533;DHT22;27262;-35.248;149.138;2023-08-06T10:21:17;20.60;62.10
41533;DHT22;27262;-35.248;149.138;2023-08-06T10:23:54;20.60;62.10
41533;DHT22;27262;-35.248;149.138;2023-08-06T10:26:28;20.60;62.10
41533;DHT22;27262;-35.248;149.138;2023-08-06T10:28:59;20.60;62.10
41533;DHT22;27262;-35.248;149.138;2023-08-06T10:31:58;20.50;62.10
41533;DHT22;27262;-35.248;149.138;2023-08-06T10:34:56;20.60;62.00
41533;DHT22;27262;-35.248;149.138;2023-08-06T10:37:37;20.50;62.10
41533;DHT22;27262;-35.248;149.138;2023-08-06T10:40:07;20.50;62.80
41533;DHT22;27262;-35.248;149.138;2023-08-06T10:42:40;20.50;62.20
41533;DHT22;27262;-35.248;149.138;2023-08-06T10:45:20;20.50;62.20
41533;DHT22;27262;-35.248;149.138;2023-08-06T10:47:54;20.50;62.10
41533;DHT22;27262;-35.248;149.138;2023-08-06T10:50:26;20.40;62.20
41533;DHT22;27262;-35.248;149.138;2023-08-06T10:52:56;20.40;62.20
41533;DHT22;27262;-35.248;149.138;2023-08-06T10:55:28;20.40;62.10
41533;DHT22;27262;-35.248;149.138;2023-08-06T10:57:59;20.40;62.20
41533;DHT22;27262;-35.248;149.138;2023-08-06T11:00:29;20.40;62.10
41533;DHT22;27262;-35.248;149.138;2023-08-06T11:03:00;20.40;62.10
41533;DHT22;27262;-35.248;149.138;2023-08-06T11:05:31;20.40;62.20
41533;DHT22;27262;-35.248;149.138;2023-08-06T11:08:02;20.40;62.20
41533;DHT22;27262;-35.248;149.138;2023-08-06T11:10:34;20.40;62.20
41533;DHT22;27262;-35.248;149.138;2023-08-06T11:13:17;20.40;62.20
41533;DHT22;27262;-35.248;149.138;2023-08-06T11:15:48;20.30;62.30
41533;DHT22;27262;-35.248;149.138;2023-08-06T11:18:20;20.30;62.30
41533;DHT22;27262;-35.248;149.138;2023-08-06T11:20:51;20.30;62.40
41533;DHT22;27262;-35.248;149.138;2023-08-06T11:23:21;20.30;62.40
41533;DHT22;27262;-35.248;149.138;2023-08-06T11:25:54;20.30;62.40
41533;DHT22;27262;-35.248;149.138;2023-08-06T11:28:25;20.20;62.40
41533;DHT22;27262;-35.248;149.138;2023-08-06T11:30:56;20.20;62.50
41533;DHT22;27262;-35.248;149.138;2023-08-06T11:33:30;20.20;62.60
41533;DHT22;27262;-35.248;149.138;2023-08-06T11:36:02;20.20;62.60
41533;DHT22;27262;-35.248;149.138;2023-08-06T11:38:33;20.10;62.70
41533;DHT22;27262;-35.248;149.138;2023-08-06T11:41:03;20.10;62.70
41533;DHT22;27262;-35.248;149.138;2023-08-06T11:43:33;20.10;62.70
41533;DHT22;27262;-35.248;149.138;2023-08-06T11:46:04;20.10;62.70
41533;DHT22;27262;-35.248;149.138;2023-08-06T11:48:54;20.10;62.70
41533;DHT22;27262;-35.248;149.138;2023-08-06T11:51:28;20.10;62.70
41533;DHT22;27262;-35.248;149.138;2023-08-06T11:53:58;20.00;62.80
41533;DHT22;27262;-35.248;149.138;2023-08-06T11:56:32;20.00;62.80
41533;DHT22;27262;-35.248;149.138;2023-08-06T11:59:04;20.00;62.90
41533;DHT22;27262;-35.248;149.138;2023-08-06T12:01:36;20.00;62.80
41533;DHT22;27262;-35.248;149.138;2023-08-06T12:04:08;20.00;62.90
41533;DHT22;27262;-35.248;149.138;2023-08-06T12:06:45;19.90;62.80
41533;DHT22;27262;-35.248;149.138;2023-08-06T12:09:15;19.90;62.80
41533;DHT22;27262;-35.248;149.138;2023-08-06T12:11:45;19.90;62.90
41533;DHT22;27262;-35.248;149.138;2023-08-06T12:14:15;19.80;62.80
41533;DHT22;27262;-35.248;149.138;2023-08-06T12:16:46;19.80;62.80
41533;DHT22;27262;-35.248;149.138;2023-08-06T12:19:16;19.80;62.80
41533;DHT22;27262;-35.248;149.138;2023-08-06T12:21:47;19.80;62.80
41533;DHT22;27262;-35.248;149.138;2023-08-06T12:24:17;19.80;62.80
41533;DHT22;27262;-35.248;149.138;2023-08-06T12:26:47;19.80;62.90
41533;DHT22;27262;-35.248;149.138;2023-08-06T12:29:17;19.80;62.90
41533;DHT22;27262;-35.248;149.138;2023-08-06T12:31:48;19.80;62.90
41533;DHT22;27262;-35.248;149.138;2023-08-06T12:34:19;19.80;62.90
41533;DHT22;27262;-35.248;149.138;2023-08-06T12:36:53;19.70;62.90
41533;DHT22;27262;-35.248;149.138;2023-08-06T12:39:23;19.70;62.90
41533;DHT22;27262;-35.248;149.138;2023-08-06T12:41:57;19.70;62.90
41533;DHT22;27262;-35.248;149.138;2023-08-06T12:44:36;19.70;63.00
41533;DHT22;27262;-35.248;149.138;2023-08-06T12:47:08;19.70;63.00
41533;DHT22;27262;-35.248;149.138;2023-08-06T12:49:38;19.60;62.90
41533;DHT22;27262;-35.248;149.138;2023-08-06T12:52:09;19.60;63.00
41533;DHT22;27262;-35.248;149.138;2023-08-06T12:54:42;19.60;63.00
41533;DHT22;27262;-35.248;149.138;2023-08-06T12:57:12;19.60;63.00
41533;DHT22;27262;-35.248;149.138;2023-08-06T12:59:42;19.60;63.00
41533;DHT22;27262;-35.248;149.138;2023-08-06T13:02:13;19.60;63.00
41533;DHT22;27262;-35.248;149.138;2023-08-06T13:04:45;19.50;62.90
41533;DHT22;27262;-35.248;149.138;2023-08-06T13:07:16;19.50;62.90
41533;DHT22;27262;-35.248;149.138;2023-08-06T13:09:46;19.50;63.00
41533;DHT22;27262;-35.248;149.138;2023-08-06T13:12:16;19.50;63.00
41533;DHT22;27262;-35.248;149.138;2023-08-06T13:14:49;19.50;63.00
41533;DHT22;27262;-35.248;149.138;2023-08-06T13:17:20;19.50;63.00
41533;DHT22;27262;-35.248;149.138;2023-08-06T13:19:50;19.40;63.00
41533;DHT22;27262;-35.248;149.138;2023-08-06T13:22:20;19.40;63.00
41533;DHT22;27262;-35.248;149.138;2023-08-06T13:24:51;19.40;63.00
41533;DHT22;27262;-35.248;149.138;2023-08-06T13:27:21;19.40;63.10
41533;DHT22;27262;-35.248;149.138;2023-08-06T13:29:51;19.40;63.10
41533;DHT22;27262;-35.248;149.138;2023-08-06T13:32:22;19.30;63.10
41533;DHT22;27262;-35.248;149.138;2023-08-06T13:34:52;19.30;63.10
41533;DHT22;27262;-35.248;149.138;2023-08-06T13:37:25;19.30;63.10
41533;DHT22;27262;-35.248;149.138;2023-08-06T13:39:55;19.30;63.10
41533;DHT22;27262;-35.248;149.138;2023-08-06T13:42:25;19.30;63.20
41533;DHT22;27262;-35.248;149.138;2023-08-06T13:44:55;19.20;63.20
41533;DHT22;27262;-35.248;149.138;2023-08-06T13:47:33;19.20;63.20
41533;DHT22;27262;-35.248;149.138;2023-08-06T13:50:04;19.20;63.30
41533;DHT22;27262;-35.248;149.138;2023-08-06T13:52:34;19.20;63.30
41533;DHT22;27262;-35.248;149.138;2023-08-06T13:55:06;19.20;63.30
41533;DHT22;27262;-35.248;149.138;2023-08-06T13:57:36;19.20;63.40
41533;DHT22;27262;-35.248;149.138;2023-08-06T14:00:07;19.10;63.30
41533;DHT22;27262;-35.248;149.138;2023-08-06T14:02:37;19.10;63.30
41533;DHT22;27262;-35.248;149.138;2023-08-06T14:05:08;19.10;63.40
41533;DHT22;27262;-35.248;149.138;2023-08-06T14:07:38;19.10;63.40
41533;DHT22;27262;-35.248;149.138;2023-08-06T14:10:09;19.00;63.40
41533;DHT22;27262;-35.248;149.138;2023-08-06T14:12:39;19.00;63.40
41533;DHT22;27262;-35.248;149.138;2023-08-06T14:15:13;19.00;63.50
41533;DHT22;27262;-35.248;149.138;2023-08-06T14:17:43;19.00;63.50
41533;DHT22;27262;-35.248;149.138;2023-08-06T14:20:13;19.00;63.60
41533;DHT22;27262;-35.248;149.138;2023-08-06T14:22:44;19.00;63.60
41533;DHT22;27262;-35.248;149.138;2023-08-06T14:25:14;19.00;63.60
41533;DHT22;27262;-35.248;149.138;2023-08-06T14:27:44;19.00;63.70
41533;DHT22;27262;-35.248;149.138;2023-08-06T14:30:15;18.90;63.60
41533;DHT22;27262;-35.248;149.138;2023-08-06T14:32:45;18.90;63.70
41533;DHT22;27262;-35.248;149.138;2023-08-06T14:35:16;18.90;63.70
41533;DHT22;27262;-35.248;149.138;2023-08-06T14:37:46;18.90;63.80
41533;DHT22;27262;-35.248;149.138;2023-08-06T14:40:16;18.90;63.70
41533;DHT22;27262;-35.248;149.138;2023-08-06T14:42:47;18.90;63.70
41533;DHT22;27262;-35.248;149.138;2023-08-06T14:45:17;18.80;63.60
41533;DHT22;27262;-35.248;149.138;2023-08-06T14:47:47;18.80;63.70
41533;DHT22;27262;-35.248;149.138;2023-08-06T14:50:18;18.80;63.60
41533;DHT22;27262;-35.248;149.138;2023-08-06T14:52:48;18.80;63.60
41533;DHT22;27262;-35.248;149.138;2023-08-06T14:55:26;18.80;63.50
41533;DHT22;27262;-35.248;149.138;2023-08-06T14:57:56;18.80;63.50
41533;DHT22;27262;-35.248;149.138;2023-08-06T15:00:27;18.70;63.40
41533;DHT22;27262;-35.248;149.138;2023-08-06T15:02:57;18.80;63.50
41533;DHT22;27262;-35.248;149.138;2023-08-06T15:05:27;18.70;63.30
41533;DHT22;27262;-35.248;149.138;2023-08-06T15:07:58;18.70;63.10
41533;DHT22;27262;-35.248;149.138;2023-08-06T15:10:28;18.60;63.00
41533;DHT22;27262;-35.248;149.138;2023-08-06T15:12:58;18.70;63.00
41533;DHT22;27262;-35.248;149.138;2023-08-06T15:15:29;18.60;62.90
41533;DHT22;27262;-35.248;149.138;2023-08-06T15:20:38;18.60;62.90